Hicksville, Ohio
Current Conditions -  °F | °C
As of 4:35 PM on Wednesday 17 Dec 2014 (Local Time) from KGWB Reporting Station
Overcast Overcast  
Wind Chill: 17°   Ceiling: 1600
Heat Index: 28°   Visibility: 10mi
Dew Point: 23°   Wind: 14mph
Humidity: 80%   Direction: 270°W
Pressure: 30.17"   Gusts: 18mph
Location:  41.29°N, 84.76°W
Report Text: KGWB 172135Z AUTO 27012G16KT 10SM BKN016 OVC023 M02/M05 A3017 RMK AO2
Loading
Personal Weather Stations






























Interactive Weather Map New forecast layout! Learn more

10-Day Weather Forecast

Advertisements
Track Severe Weather on mobile